Portada
METAR-TAF:

METAR-TAF

Aeroports :

Mersa Matruh, Egipte

latitud: 31-20N, longitud: 027-13E, altitud: 25 m

Observació

L'informe es va fer fa 47 minuts, a les 14:00 UTC
Vent 12 kt del Nord/Nord-Oest
Temperatura 30°C
Humitat 55%
Pressió 1007 hPa
Visibilitat 10 km o més
sense núvols per sota de 1500 mi sense presència de cumulonimbus.

METAR: HEMM 161400Z 34012KT CAVOK 30/20 Q1007 NOSIG

Hora: 16:47 (14:47 UTC)

Pronòstic

L'informe es va fer fa 3 hores i 47 minuts, a les 11:00 UTC
Pronòstic vàlid del 16 a les 12 UTC al 17 a les 18 UTC
Vent 13 kt del Nord-Oest
Visibilitat 10 km o més
sense núvols per sota de 1500 mi sense presència de cumulonimbus.

TAF: HEMM 161100Z 1612/1718 31013KT CAVOK

Observacions i pronòstics meteorològics de més de 4000 aeroports (METAR i TAF).

Les estacions disponibles són els punts grocs i vermells al mapa.

Posi el ratolí al punt desitjat per veure el nom de l'estació.

Feu clic per veure les observacions i els pronòstics meteorològics.

Per canviar el mapa: feu clic els botons verds amb una creu de color negre per apropar; al botó verd amb un guió per allunyar la imatge; o en les fletxes verdes per a mapes adjacents.


METAR-TAF: